Grey Shark — 3ELV4 — position and weather

sailwx.info

Track history (hours):
 
Tides and Currents Weather Stations Pressure Air Temp Water Temp Dewpoint Dewpoint Depression Visibility Wind Speed Wind Dir Waves Ship Positions

Grey Shark

Last reported at 2017-Jan-06 11:33 UTC. Time now 2017-Jan-23 12:48 UTC.
Position N 25°37' W 079°33'.
Warning: this ship's position is 17 days out of date.

Length 110 m; draft 5.1 m.

Type: Cargo ship. MMSI: 371494000.

Date/timePositionNaut miles runAvg speedWind from/ knotsBaromVisibWave heightAir tempDewpointWater temp
2017-Jan-06 11:33N 25°37' W 079°33'8 8.2
2017-Jan-06 10:33N 25°42' W 079°40'7 7.4
2017-Jan-06 09:33N 25°47' W 079°45'6 6.4
2017-Jan-06 08:33N 25°52' W 079°50'6 6.0
2017-Jan-06 07:33N 25°57' W 079°54'6 5.9
2017-Jan-06 06:33N 26°01' W 079°58'7 7.0
2017-Jan-06 05:34N 26°05' W 080°05'2 2.1
2017-Jan-06 04:33N 26°05' W 080°07'0 0.0
2017-Jan-06 03:33N 26°05' W 080°07'0 0.0
2017-Jan-06 02:33N 26°05' W 080°07'0 0.0
2017-Jan-06 01:33N 26°05' W 080°07'0 0.0
2017-Jan-06 00:33N 26°05' W 080°07'0 0.0
2017-Jan-05 23:33N 26°05' W 080°07'0 0.0
2017-Jan-05 22:33N 26°05' W 080°07'0 0.0
2017-Jan-05 21:33N 26°05' W 080°07'0 0.0
2017-Jan-05 20:33N 26°05' W 080°07'0 0.0
2017-Jan-05 19:33N 26°05' W 080°07'0 0.0
2017-Jan-05 18:33N 26°05' W 080°07'0 0.0
2017-Jan-05 17:33N 26°05' W 080°07'0 0.0
2017-Jan-05 16:33N 26°05' W 080°07'0 0.0
2017-Jan-05 15:33N 26°05' W 080°07'0 0.0
2017-Jan-05 14:33N 26°05' W 080°07'0 0.0
2017-Jan-05 13:33N 26°05' W 080°07'0 0.0
2017-Jan-05 12:33N 26°05' W 080°07'0 0.0
2017-Jan-05 11:33N 26°05' W 080°07'0 0.0
2017-Jan-05 10:33N 26°05' W 080°07'1 0.9
2017-Jan-05 09:33N 26°06' W 080°06'7 6.9
2017-Jan-05 08:33N 25°60' W 080°02'8 8.4
2017-Jan-05 07:33N 25°51' W 080°01'1 0.9
2017-Jan-05 06:33N 25°51' W 079°60'1 1.3
2017-Jan-05 05:33N 25°52' W 079°58'1 1.1
2017-Jan-05 04:33N 25°52' W 079°57'2 2.0
2017-Jan-05 03:33N 25°51' W 079°56'4 3.9
2017-Jan-05 02:33N 25°48' W 079°53'4 4.4
2017-Jan-05 01:33N 25°44' W 079°50'5 4.8
2017-Jan-05 00:33N 25°40' W 079°48'5 4.7
2017-Jan-04 23:33N 25°36' W 079°45'6 6.4
2017-Jan-04 22:33N 25°30' W 079°42'  
Track history (hours):
 
Tides and Currents Weather Stations Pressure Air Temp Water Temp Dewpoint Dewpoint Depression Visibility Wind Speed Wind Dir Waves Ship Positions

Grey Shark

Last reported at 2017-Jan-06 11:33 UTC. Time now 2017-Jan-23 12:48 UTC.
Position N 25°37' W 079°33'.
Warning: this ship's position is 17 days out of date.

Length 110 m; draft 5.1 m.

Type: Cargo ship. MMSI: 371494000.

Date/timePositionNaut miles runAvg speedWind from/ knotsBaromVisibWave heightAir tempDewpointWater temp
2017-Jan-06 11:33N 25°37' W 079°33'8 8.2
2017-Jan-06 10:33N 25°42' W 079°40'7 7.4
2017-Jan-06 09:33N 25°47' W 079°45'6 6.4
2017-Jan-06 08:33N 25°52' W 079°50'6 6.0
2017-Jan-06 07:33N 25°57' W 079°54'6 5.9
2017-Jan-06 06:33N 26°01' W 079°58'7 7.0
2017-Jan-06 05:34N 26°05' W 080°05'2 2.1
2017-Jan-06 04:33N 26°05' W 080°07'0 0.0
2017-Jan-06 03:33N 26°05' W 080°07'0 0.0
2017-Jan-06 02:33N 26°05' W 080°07'0 0.0
2017-Jan-06 01:33N 26°05' W 080°07'0 0.0
2017-Jan-06 00:33N 26°05' W 080°07'0 0.0
2017-Jan-05 23:33N 26°05' W 080°07'0 0.0
2017-Jan-05 22:33N 26°05' W 080°07'0 0.0
2017-Jan-05 21:33N 26°05' W 080°07'0 0.0
2017-Jan-05 20:33N 26°05' W 080°07'0 0.0
2017-Jan-05 19:33N 26°05' W 080°07'0 0.0
2017-Jan-05 18:33N 26°05' W 080°07'0 0.0
2017-Jan-05 17:33N 26°05' W 080°07'0 0.0
2017-Jan-05 16:33N 26°05' W 080°07'0 0.0
2017-Jan-05 15:33N 26°05' W 080°07'0 0.0
2017-Jan-05 14:33N 26°05' W 080°07'0 0.0
2017-Jan-05 13:33N 26°05' W 080°07'0 0.0
2017-Jan-05 12:33N 26°05' W 080°07'0 0.0
2017-Jan-05 11:33N 26°05' W 080°07'0 0.0
2017-Jan-05 10:33N 26°05' W 080°07'1 0.9
2017-Jan-05 09:33N 26°06' W 080°06'7 6.9
2017-Jan-05 08:33N 25°60' W 080°02'8 8.4
2017-Jan-05 07:33N 25°51' W 080°01'1 0.9
2017-Jan-05 06:33N 25°51' W 079°60'1 1.3
2017-Jan-05 05:33N 25°52' W 079°58'1 1.1
2017-Jan-05 04:33N 25°52' W 079°57'2 2.0
2017-Jan-05 03:33N 25°51' W 079°56'4 3.9
2017-Jan-05 02:33N 25°48' W 079°53'4 4.4
2017-Jan-05 01:33N 25°44' W 079°50'5 4.8
2017-Jan-05 00:33N 25°40' W 079°48'5 4.7
2017-Jan-04 23:33N 25°36' W 079°45'6 6.4
2017-Jan-04 22:33N 25°30' W 079°42'  

Dump ship's entire track history